Flight Track Log - Related Links

Times and Time Zones

All times are in EST time to prevent confusion due to time zone crossing. See the N15RH flight status page for this flight to view local times or setup timezone preferences in your user account.

Time Position Orientation Groundspeed Altitude Reporting Facility
EST Latitude Longitude Course Direction KTS MPH feet Rate Location/Type
Thu 11:07:26 AM 33.8167 -84.5167 320° Northwest 96 110 2,100  Level Atlanta TRACON
Thu 11:08:32 AM 33.8333 -84.5333 320° Northwest 92 106 3,000 800 Climbing Atlanta TRACON
Thu 11:09:26 AM 33.8500 -84.5000 59° Northeast 119 137 3,700 737 Climbing Atlanta TRACON
Thu 11:10:26 AM 33.8167 -84.4833 157° South 128 147 4,400 684 Climbing Atlanta TRACON
Thu 11:11:20 AM 33.8000 -84.4667 140° Southeast 121 139 5,000 316 Climbing Atlanta TRACON
Thu 11:12:20 AM 33.7667 -84.4667 180° South 146 168 5,000  Level Atlanta TRACON
Thu 11:13:26 AM 33.7167 -84.4667 180° South 153 176 5,000  Level Atlanta TRACON
Thu 11:14:26 AM 33.6667 -84.4833 196° South 155 178 5,000  Level Atlanta TRACON
Thu 11:15:26 AM 33.6333 -84.4833 180° South 164 189 5,000  Level Atlanta TRACON
Thu 11:16:26 AM 33.5833 -84.4833 180° South 156 180 5,000  Level Atlanta TRACON
Thu 11:17:33 AM 33.5333 -84.4833 180° South 157 181 5,000  Level Atlanta TRACON
Thu 11:18:32 AM 33.4833 -84.4833 180° South 158 182 5,000  Level Atlanta TRACON
Thu 11:19:27 AM 33.4500 -84.4833 180° South 160 184 5,000  Level Atlanta TRACON
Thu 11:20:27 AM 33.4167 -84.4667 157° South 162 186 5,000  Level Atlanta TRACON
Thu 11:21:33 AM 33.3667 -84.4500 164° South 162 186 5,000  Level Atlanta TRACON
Thu 11:22:33 AM 33.3167 -84.4167 151° Southeast 161 185 5,000  Level Atlanta TRACON
Thu 11:23:33 AM 33.2833 -84.4000 157° South 161 185 5,000  Level Atlanta TRACON
Thu 11:24:27 AM 33.2500 -84.3833 157° South 158 182 5,000  Level Atlanta TRACON
Thu 11:25:27 AM 33.2000 -84.3667 164° South 159 183 5,000  Level Atlanta TRACON
Thu 11:26:27 AM 33.1667 -84.3500 157° South 159 183 5,000  Level Atlanta TRACON
Thu 11:27:27 AM 33.1167 -84.3333 164° South 155 178 5,000  Level Atlanta TRACON
Thu 11:28:27 AM 33.0833 -84.3000 140° Southeast 155 178 5,000  Level Atlanta TRACON
Thu 11:29:27 AM 33.0333 -84.2833 164° South 154 177 5,000  Level Atlanta TRACON
Thu 11:31:27 AM 32.9500 -84.2500 156° South 158 182 5,000  Level Atlanta TRACON
Thu 11:32:27 AM 32.9167 -84.2333 157° South 157 181 5,000  Level Atlanta TRACON
Thu 11:33:27 AM 32.8833 -84.2167 157° South 157 181 5,000  Level Atlanta TRACON
Thu 11:34:27 AM 32.8333 -84.1833 151° Southeast 158 182 5,000  Level Atlanta TRACON
Thu 11:35:27 AM 32.8000 -84.1667 157° South 153 176 5,000  Level Atlanta TRACON
Thu 11:36:21 AM 32.7667 -84.1500 157° South 155 178 5,000  Level Atlanta TRACON
Thu 11:37:21 AM 32.7167 -84.1333 164° South 154 177 5,000  Level Atlanta TRACON
Thu 11:38:15 AM 32.6833 -84.1167 157° South 151 174 5,000  Level Atlanta TRACON
Thu 11:39:21 AM 32.6500 -84.1000 157° South 150 173 5,000  Level Atlanta TRACON
Thu 11:40:21 AM 32.6000 -84.0833 164° South 148 170 5,000  Level Atlanta TRACON
Thu 11:41:21 AM 32.5667 -84.0667 157° South 148 170 5,000  Level Atlanta TRACON
Thu 11:42:21 AM 32.5333 -84.0500 157° South 151 174 5,000  Level Atlanta TRACON
Thu 11:43:15 AM 32.5000 -84.0333 157° South 152 175 5,000  Level Atlanta TRACON
Thu 11:44:21 AM 32.4500 -84.0000 151° Southeast 151 174 5,000  Level Atlanta TRACON
Thu 11:45:21 AM 32.4167 -83.9833 157° South 152 175 5,000  Level Atlanta TRACON
Thu 11:46:15 AM 32.3833 -83.9667 157° South 148 170 5,000  Level Atlanta TRACON
Thu 11:47:15 AM 32.3333 -83.9500 164° South 150 173 5,000  Level Atlanta TRACON
Thu 11:48:15 AM 32.3000 -83.9333 157° South 149 171 5,000  Level Atlanta TRACON
Thu 11:49:42 AM 32.2397 -83.9119 163° South 154 177 5,000  Level Jacksonville Center
Thu 11:50:42 AM 32.1981 -83.8942 160° South 154 177 5,000  Level Jacksonville Center
Thu 11:51:42 AM 32.1586 -83.8742 157° South 154 177 5,000  Level Jacksonville Center
Thu 11:52:42 AM 32.1189 -83.8567 160° South 154 177 5,000  Level Jacksonville Center
Thu 11:53:42 AM 32.0794 -83.8367 157° South 154 177 5,000  Level Jacksonville Center
Thu 11:54:42 AM 32.0419 -83.8192 158° South 154 177 5,000  Level Jacksonville Center
Thu 11:55:42 AM 32.0025 -83.8014 159° South 149 171 5,000  Level Jacksonville Center
Thu 11:56:42 AM 31.9631 -83.7839 159° South 149 171 5,000  Level Jacksonville Center
Thu 11:57:42 AM 31.9233 -83.7639 157° South 149 171 5,000  Level Jacksonville Center
Thu 11:58:42 AM 31.8839 -83.7464 159° South 149 171 5,000 -50 Level Jacksonville Center
Thu 11:59:42 AM 31.8444 -83.7267 157° South 149 171 4,900 -63 Descending Jacksonville Center
Thu 12:00:17 PM 31.8214 -83.7189 164° South 151 174 4,900  Level Jacksonville Center
Thu 12:00:42 PM 31.8047 -83.7092 154° Southeast 149 171 4,900  Level Jacksonville Center
Thu 12:01:12 PM 31.7861 -83.7017 161° South 150 173 4,900 100 Level Jacksonville Center
Thu 12:01:42 PM 31.7694 -83.6917 153° Southeast 149 171 5,000 100 Climbing Jacksonville Center
Thu 12:02:12 PM 31.7506 -83.6842 161° South 146 168 5,000  Level Jacksonville Center
Thu 12:02:42 PM 31.7297 -83.6742 158° South 149 171 5,000  Level Jacksonville Center
Thu 12:03:13 PM 31.7089 -83.6667 163° South 148 170 5,000  Level Jacksonville Center
Thu 12:03:42 PM 31.6944 -83.6569 150° Southeast 149 171 5,000  Level Jacksonville Center
Thu 12:04:14 PM 31.6694 -83.6469 161° South 154 177 5,000  Level Jacksonville Center
Thu 12:04:42 PM 31.6550 -83.6394 156° South 149 171 5,000  Level Jacksonville Center
Thu 12:05:14 PM 31.6300 -83.6294 161° South 152 175 5,000  Level Jacksonville Center
Thu 12:05:42 PM 31.6153 -83.6197 151° Southeast 149 171 5,000  Level Jacksonville Center
Thu 12:06:15 PM 31.5903 -83.6119 165° South 151 174 5,000  Level Jacksonville Center
Thu 12:06:42 PM 31.5778 -83.6047 154° Southeast 149 171 5,000  Level Jacksonville Center
Thu 12:07:15 PM 31.5508 -83.5922 158° South 151 174 5,000  Level Jacksonville Center
Thu 12:07:42 PM 31.5383 -83.5847 153° Southeast 149 171 5,000  Level Jacksonville Center
Thu 12:08:16 PM 31.5111 -83.5750 163° South 149 171 5,000  Level Jacksonville Center
Thu 12:08:42 PM 31.5008 -83.5700 157° South 149 171 5,000  Level Jacksonville Center
Thu 12:09:17 PM 31.4736 -83.5600 163° South 147 169 5,000  Level Jacksonville Center
Thu 12:09:42 PM 31.4611 -83.5503 146° Southeast 149 171 5,000  Level Jacksonville Center
Thu 12:10:17 PM 31.4342 -83.5403 162° South 147 169 5,000  Level Jacksonville Center
Thu 12:11:18 PM 31.3986 -83.5231 158° South 146 168 5,000  Level Jacksonville Center
Thu 12:12:19 PM 31.3569 -83.5056 160° South 146 168 5,000  Level Jacksonville Center
Thu 12:13:19 PM 31.3194 -83.4883 159° South 145 167 5,000  Level Jacksonville Center
Thu 12:14:20 PM 31.2819 -83.4686 156° South 145 167 5,000  Level Jacksonville Center
Thu 12:15:21 PM 31.2444 -83.4514 159° South 146 168 5,000  Level Jacksonville Center
Thu 12:16:21 PM 31.2050 -83.4342 160° South 147 169 5,000  Level Jacksonville Center
Thu 12:17:28 PM 31.1633 -83.4147 158° South 147 169 5,000  Level Jacksonville Center
Thu 12:18:28 PM 31.1236 -83.3975 160° South 149 171 5,000  Level Jacksonville Center
Thu 12:19:29 PM 31.0861 -83.3803 159° South 148 170 5,000  Level Jacksonville Center
Thu 12:20:30 PM 31.0467 -83.3606 157° South 149 171 5,000  Level Jacksonville Center
Thu 12:21:24 PM 31.0089 -83.3458 162° South 151 174 5,000  Level Jacksonville Center
Thu 12:22:25 PM 30.9694 -83.3286 159° South 152 175 5,000  Level Jacksonville Center
Thu 12:23:19 PM 30.9381 -83.3092 152° Southeast 151 174 5,000  Level Jacksonville Center
Thu 12:23:25 PM 30.9319 -83.3117 199° South 152 175 5,000  Level Jacksonville Center
Thu 12:24:19 PM 30.9006 -83.2969 158° South 151 174 5,000  Level Jacksonville Center
Thu 12:24:26 PM 30.8922 -83.2919 153° Southeast 152 175 5,000  Level Jacksonville Center
Thu 12:25:19 PM 30.8611 -83.2750 155° Southeast 151 174 5,000  Level Jacksonville Center
Thu 12:25:27 PM 30.8486 -83.2750 180° South 153 176 5,000 -100 Level Jacksonville Center
Thu 12:26:19 PM 30.8214 -83.2578 151° Southeast 162 186 4,900 -54 Descending Jacksonville Center
Thu 12:27:19 PM 30.7817 -83.2358 155° Southeast 162 186 4,900  Level Jacksonville Center
Thu 12:28:19 PM 30.7422 -83.2214 163° South 162 186 4,900  Level Jacksonville Center
Thu 12:29:19 PM 30.7025 -83.2019 157° South 162 186 4,900  Level Jacksonville Center
Thu 12:30:19 PM 30.6628 -83.1847 160° South 157 181 4,900  Level Jacksonville Center
Thu 12:31:19 PM 30.6233 -83.1678 160° South 157 181 4,900  Level Jacksonville Center
Thu 12:32:19 PM 30.5858 -83.1483 156° South 151 174 4,900 350 Level Jacksonville Center
Thu 12:33:19 PM 30.5503 -83.1339 161° South 145 167 5,600 600 Climbing Jacksonville Center
Thu 12:34:19 PM 30.5211 -83.1217 160° South 134 154 6,100 500 Climbing Jacksonville Center
Thu 12:35:19 PM 30.4919 -83.1047 153° Southeast 128 147 6,600 400 Climbing Jacksonville Center
Thu 12:36:19 PM 30.4606 -83.0950 165° South 123 142 6,900 150 Climbing Jacksonville Center
Thu 12:37:19 PM 30.4250 -83.0781 158° South 129 148 6,900  Level Jacksonville Center
Thu 12:38:19 PM 30.3897 -83.0611 157° South 135 155 6,900  Level Jacksonville Center
Thu 12:39:19 PM 30.3500 -83.0442 160° South 141 162 6,900  Level Jacksonville Center
Thu 12:40:19 PM 30.3103 -83.0272 160° South 146 168 6,900  Level Jacksonville Center
Thu 12:41:19 PM 30.2728 -83.0081 156° South 146 168 6,900  Level Jacksonville Center
Thu 12:42:19 PM 30.2331 -82.9911 160° South 146 168 6,900  Level Jacksonville Center
Thu 12:43:19 PM 30.1956 -82.9742 159° South 146 168 6,900  Level Jacksonville Center
Thu 12:44:19 PM 30.1539 -82.9597 163° South 146 168 6,900  Level Jacksonville Center
Thu 12:45:19 PM 30.1161 -82.9406 156° South 146 168 6,900  Level Jacksonville Center
Thu 12:46:19 PM 30.0786 -82.9239 159° South 146 168 6,900  Level Jacksonville Center
Thu 12:47:19 PM 30.0369 -82.9069 161° South 146 168 6,900  Level Jacksonville Center
Thu 12:48:19 PM 29.9992 -82.8878 156° South 146 168 6,900 78 Level Jacksonville Center
Thu 12:48:36 PM 29.9825 -82.8853 173° South 151 174 7,000  Climbing Jacksonville Center
Thu 12:49:19 PM 29.9597 -82.8711 152° Southeast 146 168 6,900  Descending Jacksonville Center
Thu 12:49:55 PM 29.9283 -82.8614 165° South 151 174 7,000  Climbing Jacksonville Center
Thu 12:50:19 PM 29.9178 -82.8519 142° Southeast 151 174 6,900  Descending Jacksonville Center
Thu 12:50:56 PM 29.8886 -82.8447 168° South 151 174 7,000  Climbing Jacksonville Center
Thu 12:51:19 PM 29.8781 -82.8350 141° Southeast 151 174 6,900  Descending Jacksonville Center
Thu 12:51:51 PM 29.8531 -82.8256 162° South 150 173 7,000  Climbing Jacksonville Center
Thu 12:52:19 PM 29.8386 -82.8158 150° Southeast 151 174 6,900  Descending Jacksonville Center
Thu 12:52:52 PM 29.8156 -82.8089 165° South 147 169 7,000 100 Climbing Jacksonville Center
Thu 12:53:19 PM 29.8008 -82.8017 157° South 151 174 7,000  Level Jacksonville Center
Thu 12:53:53 PM 29.7800 -82.7919 158° South 144 166 7,000  Level Jacksonville Center
Thu 12:54:19 PM 29.7611 -82.7850 162° South 151 174 7,000  Level Jacksonville Center
Thu 12:55:06 PM 29.7300 -82.7731 162° South 149 171 7,000  Level Jacksonville Center
Thu 12:55:19 PM 29.7236 -82.7683 147° Southeast 151 174 7,000  Level Jacksonville Center
Thu 12:56:01 PM 29.6964 -82.7586 163° South 151 174 7,000  Level Jacksonville Center
Thu 12:56:19 PM 29.6839 -82.7492 147° Southeast 151 174 7,000  Level Jacksonville Center
Thu 12:56:56 PM 29.6608 -82.7397 160° South 151 174 7,000  Level Jacksonville Center
Thu 12:57:19 PM 29.6442 -82.7325 159° South 151 174 7,000  Level Jacksonville Center
Thu 12:58:03 PM 29.6172 -82.7206 159° South 150 173 7,000  Level Jacksonville Center
Thu 12:58:19 PM 29.6044 -82.7158 162° South 151 174 7,000  Level Jacksonville Center
Thu 12:59:10 PM 29.5711 -82.7039 163° South 150 173 7,000  Level Jacksonville Center
Thu 01:00:05 PM 29.5378 -82.6872 156° South 147 169 7,000  Level Jacksonville Center
Thu 01:01:00 PM 29.5000 -82.6731 162° South 148 170 7,000  Level Jacksonville Center
Thu 01:02:00 PM 29.4625 -82.6542 156° South 147 169 7,000  Level Jacksonville Center
Thu 01:03:01 PM 29.4228 -82.6375 160° South 149 171 7,000  Level Jacksonville Center
Thu 01:04:03 PM 29.3853 -82.6208 159° South 147 169 7,000  Level Jacksonville Center
Thu 01:05:04 PM 29.3456 -82.6019 157° South 148 170 7,000  Level Jacksonville Center
Thu 01:06:16 PM 29.2953 -82.5831 162° South 149 171 7,000  Level Jacksonville Center
Thu 01:07:05 PM 29.2661 -82.5664 154° Southeast 148 170 7,000  Level Jacksonville Center
Thu 01:08:12 PM 29.2222 -82.5500 162° South 147 169 7,000  Level Jacksonville Center
Thu 01:09:01 PM 29.1931 -82.5381 160° South 148 170 7,000  Level Jacksonville Center
Thu 01:10:14 PM 29.1469 -82.5169 158° South 150 173 7,000  Level Jacksonville Center
Thu 01:11:15 PM 29.1072 -82.5006 160° South 149 171 7,000  Level Jacksonville Center
Thu 01:12:10 PM 29.0717 -82.4817 155° Southeast 150 173 7,000  Level Jacksonville Center
Thu 01:13:11 PM 29.0319 -82.4650 160° South 152 175 7,000  Level Jacksonville Center
Thu 01:14:06 PM 28.9944 -82.4511 162° South 151 174 7,000  Level Jacksonville Center
Thu 01:15:13 PM 28.9483 -82.4322 160° South 152 175 7,000  Level Jacksonville Center
Thu 01:17:18 PM 28.8667 -82.4000 161° South 153 176 7,000  Level Tampa TRACON
Thu 01:18:18 PM 28.8333 -82.3833 156° South 154 177 7,000  Level Tampa TRACON
Thu 01:19:18 PM 28.7833 -82.3500 150° Southeast 157 181 7,000  Level Tampa TRACON
Thu 01:20:18 PM 28.7500 -82.3333 156° South 157 181 7,000  Level Tampa TRACON
Thu 01:21:18 PM 28.7000 -82.3167 164° South 154 177 7,000  Level Tampa TRACON
Thu 01:22:18 PM 28.6667 -82.3000 156° South 157 181 7,000  Level Tampa TRACON
Thu 01:23:18 PM 28.6167 -82.2833 164° South 158 182 7,000  Level Tampa TRACON
Thu 01:24:18 PM 28.5833 -82.2667 156° South 157 181 7,000  Level Tampa TRACON
Thu 01:25:19 PM 28.5333 -82.2500 164° South 157 181 7,000  Level Tampa TRACON
Thu 01:26:19 PM 28.5000 -82.2333 156° South 155 178 7,000  Level Tampa TRACON
Thu 01:27:19 PM 28.4667 -82.2167 156° South 156 180 7,000  Level Tampa TRACON
Thu 01:28:19 PM 28.4167 -82.2000 164° South 156 180 7,000  Level Tampa TRACON
Thu 01:29:19 PM 28.3833 -82.1833 156° South 157 181 7,000  Level Tampa TRACON
Thu 01:30:19 PM 28.3333 -82.1667 164° South 155 178 7,000 -28 Level Tampa TRACON
Thu 01:36:25 PM 28.0941 -82.0599 164° South 152 175 6,800 -31 Descending FlightAware ADS-B
Thu 01:36:47 PM 28.0798 -82.0538 159° South 152 175 6,800  Level FlightAware ADS-B
Thu 01:37:06 PM 28.0659 -82.0479 159° South 152 175 6,800  Level FlightAware ADS-B
Thu 01:37:28 PM 28.0537 -82.0427 159° South 151 174 6,800  Level FlightAware ADS-B
Thu 01:37:46 PM 28.0399 -82.0368 159° South 151 174 6,800  Level FlightAware ADS-B
Thu 01:38:33 PM 28.0091 -82.0237 159° South 151 174 6,800  Level FlightAware ADS-B
Thu 01:42:32 PM 27.8527 -81.9733 164° South 150 173 6,800  Level FlightAware ADS-B
Thu 01:42:55 PM 27.8341 -81.9676 165° South 151 174 6,800  Level FlightAware ADS-B
Thu 01:44:34 PM 27.7678 -81.9475 165° South 150 173 6,800  Level FlightAware ADS-B
Thu 01:44:55 PM 27.7537 -81.9432 165° South 149 171 6,800  Level FlightAware ADS-B
Thu 01:45:30 PM 27.7299 -81.9361 165° South 149 171 6,800  Level FlightAware ADS-B
Thu 01:45:58 PM 27.7112 -81.9304 165° South 148 170 6,800  Level FlightAware ADS-B
Thu 01:46:17 PM 27.7095 -81.9299 165° South 148 170 6,800  Level FlightAware ADS-B
Thu 01:47:44 PM 27.6401 -81.9089 165° South 148 170 6,800  Level FlightAware ADS-B
Thu 01:48:25 PM 27.6138 -81.9009 165° South 149 171 6,800  Level FlightAware ADS-B
Thu 01:48:42 PM 27.6015 -81.8973 165° South 150 173 6,800  Level FlightAware ADS-B
Thu 01:49:05 PM 27.5914 -81.8949 168° South 145 167 6,800  Level FlightAware ADS-B
Thu 01:49:26 PM 27.5720 -81.8979 188° South 145 167 6,800  Level FlightAware ADS-B
Thu 01:49:46 PM 27.5589 -81.9001 188° South 146 168 6,800  Level FlightAware ADS-B
Thu 01:50:06 PM 27.5495 -81.8995 177° South 148 170 6,800  Level FlightAware ADS-B
Thu 01:50:46 PM 27.5237 -81.8928 167° South 150 173 6,800  Level FlightAware ADS-B
Thu 01:52:06 PM 27.4643 -81.8741 164° South 150 173 6,800  Level FlightAware ADS-B
Thu 01:52:23 PM 27.4575 -81.8720 165° South 151 174 6,800  Level FlightAware ADS-B
Thu 01:53:33 PM 27.4056 -81.8560 165° South 151 174 6,800  Level FlightAware ADS-B
Thu 01:54:17 PM 27.3788 -81.8477 165° South 151 174 6,800  Level FlightAware ADS-B
Thu 01:54:38 PM 27.3617 -81.8425 165° South 150 173 6,800  Level FlightAware ADS-B
Thu 01:54:57 PM 27.3507 -81.8391 165° South 150 173 6,800  Level FlightAware ADS-B
Thu 01:55:29 PM 27.3277 -81.8320 165° South 149 171 6,800  Level FlightAware ADS-B
Thu 01:56:14 PM 27.2979 -81.8229 165° South 148 170 6,800  Level FlightAware ADS-B
Thu 01:57:00 PM 27.2681 -81.8137 165° South 148 170 6,800  Level FlightAware ADS-B
Thu 01:57:20 PM 27.2544 -81.8095 165° South 147 169 6,800  Level FlightAware ADS-B
Thu 01:58:01 PM 27.2276 -81.8013 165° South 147 169 6,800  Level FlightAware ADS-B
Thu 01:58:16 PM 27.2224 -81.7997 165° South 147 169 6,800 29 Level FlightAware ADS-B
Thu 02:01:30 PM 27.0890 -81.7589 165° South 147 169 6,900 24 Climbing FlightAware ADS-B
Thu 02:02:27 PM 27.0519 -81.7475 165° South 147 169 6,900  Level FlightAware ADS-B
Thu 02:02:54 PM 27.0334 -81.7419 165° South 147 169 6,900 65 Level FlightAware ADS-B
Thu 02:04:00 PM 26.9997 -81.7192 165° South 139 160 7,000 48 Climbing Miami Center
Thu 02:05:00 PM 26.9822 -81.6767 115° Southeast 147 169 7,000  Level Miami Center
Thu 02:06:00 PM 26.9628 -81.6339 117° Southeast 153 176 7,000  Level Miami Center
Thu 02:07:00 PM 26.9236 -81.6183 160° South 148 170 7,000  Level Miami Center
Thu 02:08:00 PM 26.8803 -81.6072 167° South 155 178 7,000 11 Level Miami Center
Thu 02:16:24 PM 26.5364 -81.5192 165° South 151 174 7,100 11 Climbing Miami Center
Thu 02:17:00 PM 26.5087 -81.5688 167° South  Level FlightAware Approximate
Thu 02:17:24 PM 26.5014 -81.5061 162° South 151 174 7,100  Level Miami Center
Thu 02:18:00 PM 26.4693 -81.5573 165° South  Level FlightAware Approximate
Thu 02:18:24 PM 26.4600 -81.4953 167° South 151 174 7,100  Level Miami Center
Thu 02:19:00 PM 26.4299 -81.5453 165° South  Level FlightAware Approximate
Thu 02:19:24 PM 26.4186 -81.4867 169° South 151 174 7,100  Level Miami Center
Thu 02:20:00 PM 26.3906 -81.5334 165° South  Level FlightAware Approximate
Thu 02:20:24 PM 26.3731 -81.4733 165° South 151 174 7,100  Level Miami Center
Thu 02:21:00 PM 26.3512 -81.5214 165° South  Level FlightAware Approximate
Thu 02:21:24 PM 26.3314 -81.4647 170° South 156 180 7,100  Level Miami Center
Thu 02:22:24 PM 26.2942 -81.4539 165° South 156 180 7,100 -50 Level Miami Center
Thu 02:23:24 PM 26.2508 -81.4406 165° South 156 180 7,000 -50 Descending Miami Center
Thu 02:24:24 PM 26.2114 -81.4322 169° South 156 180 7,000  Level Miami Center
Thu 02:25:24 PM 26.1636 -81.4211 168° South 161 185 7,000  Level Miami Center
Thu 02:26:24 PM 26.1244 -81.4103 166° South 161 185 7,000  Level Miami Center
Thu 02:27:24 PM 26.0831 -81.3972 164° South 161 185 7,000  Level Miami Center
Thu 02:28:24 PM 26.0417 -81.3889 170° South 161 185 7,000  Level Miami Center
Thu 02:29:24 PM 26.0022 -81.3781 166° South 161 185 7,000  Level Miami Center
Thu 02:30:24 PM 25.9608 -81.3672 167° South 156 180 7,000  Level Miami Center
Thu 02:31:24 PM 25.9194 -81.3564 167° South 156 180 7,000  Level Miami Center
Thu 02:32:24 PM 25.8758 -81.3456 167° South 161 185 7,000  Level Miami Center
Thu 02:33:24 PM 25.8364 -81.3347 166° South 161 185 7,000  Level Miami Center
Thu 02:34:24 PM 25.7950 -81.3242 167° South 161 185 7,000  Level Miami Center
Thu 02:35:24 PM 25.7514 -81.3133 167° South 161 185 7,000  Level Miami Center
Thu 02:36:24 PM 25.7122 -81.3025 166° South 156 180 7,000  Level Miami Center
Thu 02:37:24 PM 25.6706 -81.2942 170° South 156 180 7,000  Level Miami Center
Thu 02:38:24 PM 25.6314 -81.2811 163° South 156 180 7,000  Level Miami Center
Thu 02:39:24 PM 25.5897 -81.2728 170° South 156 180 7,000  Level Miami Center
Thu 02:40:24 PM 25.5483 -81.2597 164° South 156 180 7,000 -50 Level Miami Center
Thu 02:41:24 PM 25.5089 -81.2514 169° South 156 180 6,900 -300 Descending Miami Center
Thu 02:42:24 PM 25.4633 -81.2406 168° South 156 180 6,400 -500 Descending Miami Center
Thu 02:43:24 PM 25.4178 -81.2272 165° South 162 186 5,900 -500 Descending Miami Center
Thu 02:44:24 PM 25.3681 -81.2164 169° South 174 200 5,400 -500 Descending Miami Center
Thu 02:45:24 PM 25.3225 -81.2033 165° South 174 200 4,900 -500 Descending Miami Center
Thu 02:46:24 PM 25.2747 -81.1900 166° South 179 206 4,400 -500 Descending Miami Center
Thu 02:47:24 PM 25.2272 -81.1792 168° South 179 206 3,900 -500 Descending Miami Center
Thu 02:48:24 PM 25.1794 -81.1661 166° South 179 206 3,400 -450 Descending Miami Center
Thu 02:49:24 PM 25.1319 -81.1506 163° South 179 206 3,000 -200 Descending Miami Center
Thu 02:50:24 PM 25.0842 -81.1419 171° South 179 206 3,000  Level Miami Center

Login

Don't have an account? Register now (free) for customized features, flight alerts, and more!